Time;durP1;ratioP1;P1;durP2;ratioP2;P2;SDS_P1;SDS_P2;PMS_P1;PMS_P2;Temp;Humidity;BMP_temperature;BMP_pressure;BME280_temperature;BME280_humidity;BME280_pressure;Samples;Min_cycle;Max_cycle;Signal;HPM_P1;HPM_P2
2021/04/13 00:00:04;;;;;;;;;;;1.90;94.90;;;;;;5027042;28;20381;-36
2021/04/13 00:02:40;;;;;;;;;;;1.80;94.60;;;;;;5026551;28;19932;-37
2021/04/13 00:05:13;;;;;;;;;;;1.80;94.60;;;;;;5028284;28;20019;-36
2021/04/13 00:07:43;;;;;;;;;;;1.70;94.40;;;;;;5027931;28;20361;-37
2021/04/13 00:10:21;;;;;;;;;;;1.70;94.60;;;;;;5028786;28;20015;-37
2021/04/13 00:12:53;;;;;;;;;;;1.70;94.60;;;;;;5024701;28;20289;-36
2021/04/13 00:15:24;;;;;;;;;;;1.60;94.80;;;;;;5028213;28;19929;-36
2021/04/13 00:17:50;;;;;;;;;;;1.60;94.90;;;;;;5024689;28;19925;-37
2021/04/13 00:20:22;;;;;;;;;;;1.60;95.10;;;;;;5028096;28;19990;-36
2021/04/13 00:22:51;;;;;;;;;;;1.50;95.30;;;;;;5027662;28;19929;-37
2021/04/13 00:25:28;;;;;;;;;;;1.50;94.90;;;;;;5027753;28;19964;-37
2021/04/13 00:27:56;;;;;;;;;;;1.40;94.70;;;;;;5032254;28;19921;-36
2021/04/13 00:30:30;;;;;;;;;;;1.40;94.90;;;;;;5027369;28;19940;-37
2021/04/13 00:33:00;;;;;;;;;;;1.40;95.10;;;;;;5026937;28;19952;-37
2021/04/13 00:35:41;;;;;;;;;;;1.40;95.20;;;;;;5027753;28;19921;-37
2021/04/13 00:38:16;;;;;;;;;;;1.40;95.40;;;;;;5027893;28;19920;-36
2021/04/13 00:40:47;;;;;;;;;;;1.30;95.30;;;;;;5027466;28;19925;-37
2021/04/13 00:43:18;;;;;;;;;;;1.30;95.30;;;;;;5026561;28;19921;-37
2021/04/13 00:45:51;;;;;;;;;;;1.30;95.40;;;;;;5030475;28;20364;-36
2021/04/13 00:48:22;;;;;;;;;;;1.30;95.30;;;;;;5027406;28;19929;-37
2021/04/13 00:50:56;;;;;;;;;;;1.30;95.40;;;;;;5028114;28;19921;-37
2021/04/13 00:53:25;;;;;;;;;;;1.30;95.70;;;;;;5030513;28;19950;-37
2021/04/13 00:55:58;;;;;;;;;;;1.30;95.90;;;;;;5031856;28;19925;-37
2021/04/13 00:58:31;;;;;;;;;;;1.40;95.80;;;;;;5026666;28;19925;-37
2021/04/13 01:01:03;;;;;;;;;;;1.30;95.80;;;;;;5027389;28;19925;-37
2021/04/13 01:03:33;;;;;;;;;;;1.30;95.70;;;;;;5030269;28;19967;-38
2021/04/13 01:06:04;;;;;;;;;;;1.30;95.50;;;;;;5026466;28;19971;-36
2021/04/13 01:08:39;;;;;;;;;;;1.30;95.70;;;;;;5026586;28;19925;-37
2021/04/13 01:11:04;;;;;;;;;;;1.30;95.90;;;;;;5033184;28;20467;-36
2021/04/13 01:13:39;;;;;;;;;;;1.30;95.80;;;;;;5027528;28;19960;-36
2021/04/13 01:16:07;;;;;;;;;;;1.30;96.00;;;;;;5026955;28;19931;-37
2021/04/13 01:18:39;;;;;;;;;;;1.30;96.10;;;;;;5027222;28;20447;-37
2021/04/13 01:21:27;;;;;;;;;;;1.30;96.10;;;;;;5026782;28;20389;-37
2021/04/13 01:24:08;;;;;;;;;;;1.30;96.30;;;;;;5008086;28;19973;-37
2021/04/13 01:26:41;;;;;;;;;;;1.30;96.20;;;;;;5026969;28;19991;-37
2021/04/13 01:29:12;;;;;;;;;;;1.30;96.10;;;;;;5023170;28;19971;-37
2021/04/13 01:31:53;;;;;;;;;;;1.30;95.90;;;;;;5027841;28;20549;-38
2021/04/13 01:34:35;;;;;;;;;;;1.30;96.10;;;;;;5011422;28;19994;-36
2021/04/13 01:37:08;;;;;;;;;;;1.30;96.00;;;;;;5025532;28;20035;-36
2021/04/13 01:39:46;;;;;;;;;;;1.30;96.00;;;;;;5026431;28;20008;-37
2021/04/13 01:42:15;;;;;;;;;;;1.20;96.10;;;;;;5026371;28;19925;-37
2021/04/13 01:44:48;;;;;;;;;;;1.20;96.20;;;;;;5030664;28;19931;-37
2021/04/13 01:47:17;;;;;;;;;;;1.20;96.20;;;;;;5026652;28;19925;-37
2021/04/13 01:49:56;;;;;;;;;;;1.20;96.30;;;;;;5025314;28;20328;-37
2021/04/13 01:52:29;;;;;;;;;;;1.20;96.20;;;;;;5026821;28;19932;-36
2021/04/13 01:55:02;;;;;;;;;;;1.10;96.40;;;;;;5023179;28;20456;-37
2021/04/13 01:57:31;;;;;;;;;;;1.10;96.40;;;;;;5026048;28;19929;-36
2021/04/13 02:00:38;;;;;;;;;;;1.10;96.40;;;;;;5027797;28;20051;-37
2021/04/13 02:03:17;;;;;;;;;;;1.10;96.40;;;;;;5023526;28;19924;-37
2021/04/13 02:05:53;;;;;;;;;;;1.10;96.40;;;;;;5024243;28;19921;-36
2021/04/13 02:08:39;;;;;;;;;;;1.00;96.50;;;;;;5022354;28;19932;-37
2021/04/13 02:11:14;;;;;;;;;;;1.00;96.40;;;;;;5022872;28;20403;-37
2021/04/13 02:13:50;;;;;;;;;;;1.00;96.50;;;;;;5022999;28;19929;-37
2021/04/13 02:16:21;;;;;;;;;;;1.00;96.40;;;;;;5022639;28;20027;-37
2021/04/13 02:18:51;;;;;;;;;;;1.00;96.40;;;;;;5022147;28;19932;-37
2021/04/13 02:21:27;;;;;;;;;;;0.90;96.20;;;;;;5022936;28;20385;-38
2021/04/13 02:23:55;;;;;;;;;;;0.90;96.20;;;;;;5024150;28;20011;-36
2021/04/13 02:26:24;;;;;;;;;;;0.90;96.40;;;;;;5028592;28;19924;-37
2021/04/13 02:28:55;;;;;;;;;;;1.00;96.40;;;;;;5026137;28;19929;-37
2021/04/13 02:31:48;;;;;;;;;;;1.00;96.50;;;;;;5028291;28;19955;-37
2021/04/13 02:34:16;;;;;;;;;;;1.00;96.60;;;;;;5028813;28;19925;-37
2021/04/13 02:37:04;;;;;;;;;;;1.10;96.70;;;;;;5029564;28;19924;-36
2021/04/13 02:39:35;;;;;;;;;;;1.10;96.70;;;;;;5025248;28;20517;-37
2021/04/13 02:42:13;;;;;;;;;;;1.10;96.90;;;;;;5026626;28;19939;-37
2021/04/13 02:44:39;;;;;;;;;;;1.10;96.70;;;;;;5025266;28;20648;-37
2021/04/13 02:47:10;;;;;;;;;;;1.10;96.80;;;;;;5026257;28;19925;-37
2021/04/13 02:49:42;;;;;;;;;;;1.10;96.80;;;;;;5027015;28;19928;-36
2021/04/13 02:52:15;;;;;;;;;;;1.20;96.80;;;;;;5026492;28;19928;-37
2021/04/13 02:54:49;;;;;;;;;;;1.10;96.90;;;;;;5026566;28;20496;-38
2021/04/13 02:57:25;;;;;;;;;;;1.10;96.90;;;;;;5025115;28;19936;-37
2021/04/13 03:00:11;;;;;;;;;;;1.10;96.80;;;;;;5025642;28;19941;-36
2021/04/13 03:02:44;;;;;;;;;;;1.10;96.70;;;;;;5019559;28;19925;-39
2021/04/13 03:05:17;;;;;;;;;;;1.10;96.70;;;;;;5027275;28;19932;-37
2021/04/13 03:07:44;;;;;;;;;;;1.10;96.70;;;;;;5026074;28;19924;-36
2021/04/13 03:10:13;;;;;;;;;;;1.00;96.60;;;;;;5029887;28;20446;-37
2021/04/13 03:12:46;;;;;;;;;;;1.00;96.50;;;;;;5026840;28;20089;-36
2021/04/13 03:15:14;;;;;;;;;;;1.00;96.50;;;;;;5026036;28;19928;-37
2021/04/13 03:17:43;;;;;;;;;;;1.00;96.30;;;;;;5026827;28;20344;-36
2021/04/13 03:20:15;;;;;;;;;;;1.00;96.50;;;;;;5028643;28;19972;-36
2021/04/13 03:22:46;;;;;;;;;;;1.00;96.70;;;;;;5030112;28;19928;-36
2021/04/13 03:25:18;;;;;;;;;;;1.00;96.60;;;;;;5029938;28;20275;-36
2021/04/13 03:27:52;;;;;;;;;;;1.10;96.80;;;;;;5028682;28;19925;-36
2021/04/13 03:30:25;;;;;;;;;;;1.10;96.70;;;;;;5028809;28;20022;-36
2021/04/13 03:32:59;;;;;;;;;;;1.00;96.60;;;;;;5030496;28;19962;-36
2021/04/13 03:35:26;;;;;;;;;;;1.00;96.80;;;;;;5030646;28;19925;-36
2021/04/13 03:37:56;;;;;;;;;;;1.00;96.90;;;;;;5029162;28;19925;-36
2021/04/13 03:40:28;;;;;;;;;;;1.00;97.00;;;;;;5028921;28;19929;-36
2021/04/13 03:43:00;;;;;;;;;;;1.00;97.20;;;;;;5029114;28;19951;-36
2021/04/13 03:45:30;;;;;;;;;;;1.00;97.60;;;;;;5031425;28;19971;-36
2021/04/13 03:48:03;;;;;;;;;;;1.00;97.40;;;;;;5029708;28;20042;-36
2021/04/13 03:50:39;;;;;;;;;;;1.00;97.50;;;;;;5026547;28;19925;-36
2021/04/13 03:53:07;;;;;;;;;;;1.20;97.90;;;;;;5028338;28;19925;-36
2021/04/13 03:55:33;;;;;;;;;;;1.10;97.90;;;;;;5028057;28;19925;-36
2021/04/13 03:58:19;;;;;;;;;;;1.20;97.90;;;;;;5029352;28;20433;-36
2021/04/13 04:00:48;;;;;;;;;;;1.20;97.90;;;;;;5027959;28;19925;-37
2021/04/13 04:03:17;;;;;;;;;;;1.20;97.90;;;;;;5027860;28;20042;-35
2021/04/13 04:05:47;;;;;;;;;;;1.30;98.10;;;;;;5028352;28;19925;-36
2021/04/13 04:08:19;;;;;;;;;;;1.30;98.00;;;;;;5034334;28;19929;-35
2021/04/13 04:10:49;;;;;;;;;;;1.30;97.80;;;;;;5027407;28;19948;-36
2021/04/13 04:13:17;;;;;;;;;;;1.20;97.80;;;;;;5029683;28;20410;-36
2021/04/13 04:15:50;;;;;;;;;;;1.20;97.70;;;;;;5026575;28;19925;-36
2021/04/13 04:18:34;;;;;;;;;;;1.20;97.60;;;;;;5025646;28;19925;-36
2021/04/13 04:21:14;;;;;;;;;;;1.10;97.60;;;;;;5026652;28;19925;-36
2021/04/13 04:23:40;;;;;;;;;;;1.00;97.50;;;;;;5025337;28;19986;-37
2021/04/13 04:26:09;;;;;;;;;;;1.00;97.50;;;;;;5027812;28;20373;-38
2021/04/13 04:28:41;;;;;;;;;;;1.00;97.50;;;;;;5027166;28;19932;-38
2021/04/13 04:31:34;;;;;;;;;;;1.00;97.50;;;;;;5025321;28;19931;-38
2021/04/13 04:34:19;;;;;;;;;;;0.90;97.40;;;;;;5028295;28;19924;-37
2021/04/13 04:36:52;;;;;;;;;;;1.00;97.70;;;;;;5028024;28;19925;-38
2021/04/13 04:39:28;;;;;;;;;;;1.00;97.90;;;;;;5022762;28;19960;-37
2021/04/13 04:42:05;;;;;;;;;;;1.00;97.90;;;;;;5030361;28;20296;-38
2021/04/13 04:44:36;;;;;;;;;;;1.00;97.90;;;;;;5026507;28;19928;-37
2021/04/13 04:47:02;;;;;;;;;;;0.90;97.70;;;;;;5026435;28;19925;-37
2021/04/13 04:49:40;;;;;;;;;;;1.00;97.80;;;;;;5032810;28;19929;-38
2021/04/13 04:52:14;;;;;;;;;;;1.00;97.70;;;;;;5028182;28;20339;-38
2021/04/13 04:54:42;;;;;;;;;;;1.10;98.10;;;;;;5034611;28;19931;-37
2021/04/13 04:57:11;;;;;;;;;;;1.10;98.10;;;;;;5026346;28;19929;-38
2021/04/13 04:59:39;;;;;;;;;;;1.20;98.00;;;;;;5027729;28;20428;-37
2021/04/13 05:02:11;;;;;;;;;;;1.20;98.10;;;;;;5026706;28;20279;-38
2021/04/13 05:04:37;;;;;;;;;;;1.20;97.90;;;;;;5026700;28;19971;-37
2021/04/13 05:07:05;;;;;;;;;;;1.20;97.90;;;;;;5027479;28;20361;-37
2021/04/13 05:09:37;;;;;;;;;;;1.30;97.90;;;;;;5024928;28;19932;-34
2021/04/13 05:12:07;;;;;;;;;;;1.30;97.80;;;;;;5025836;28;20452;-39
2021/04/13 05:14:36;;;;;;;;;;;1.50;97.80;;;;;;5022545;28;20301;-39
2021/04/13 05:17:01;;;;;;;;;;;1.50;97.60;;;;;;5026072;28;19970;-39
2021/04/13 05:19:29;;;;;;;;;;;1.50;97.50;;;;;;5025952;28;19921;-39
2021/04/13 05:21:55;;;;;;;;;;;1.50;97.50;;;;;;5034138;28;19924;-39
2021/04/13 05:24:23;;;;;;;;;;;1.60;97.30;;;;;;5024889;28;19925;-37
2021/04/13 05:26:51;;;;;;;;;;;1.70;97.50;;;;;;5026344;28;19924;-37
2021/04/13 05:29:17;;;;;;;;;;;1.80;97.40;;;;;;5025806;28;19935;-37
2021/04/13 05:31:48;;;;;;;;;;;1.90;97.30;;;;;;5025121;28;19944;-41
2021/04/13 05:34:20;;;;;;;;;;;1.90;97.10;;;;;;5024617;28;19929;-42
2021/04/13 05:36:49;;;;;;;;;;;2.00;96.90;;;;;;5026645;28;19925;-42
2021/04/13 05:39:15;;;;;;;;;;;2.20;96.60;;;;;;5029763;28;20376;-42
2021/04/13 05:41:44;;;;;;;;;;;2.30;96.40;;;;;;5030537;28;19990;-41
2021/04/13 05:44:14;;;;;;;;;;;2.50;95.90;;;;;;5030947;28;19932;-42
2021/04/13 05:46:43;;;;;;;;;;;2.70;95.40;;;;;;5027094;28;19925;-43
2021/04/13 05:49:09;;;;;;;;;;;2.90;95.00;;;;;;5028036;28;19932;-42
2021/04/13 05:51:35;;;;;;;;;;;3.10;94.40;;;;;;5031280;28;20761;-42
2021/04/13 05:54:03;;;;;;;;;;;3.20;94.00;;;;;;5025850;28;19968;-41
2021/04/13 05:56:37;;;;;;;;;;;3.30;93.80;;;;;;5026897;28;20020;-42
2021/04/13 05:59:04;;;;;;;;;;;3.40;93.60;;;;;;5025929;28;20131;-42
2021/04/13 06:01:30;;;;;;;;;;;3.60;93.20;;;;;;5031405;28;20012;-39
2021/04/13 06:03:56;;;;;;;;;;;3.80;93.10;;;;;;5032022;28;20318;-41
2021/04/13 06:06:31;;;;;;;;;;;3.90;92.10;;;;;;5030103;28;20369;-41
2021/04/13 06:08:57;;;;;;;;;;;4.10;91.90;;;;;;5030007;28;19925;-41
2021/04/13 06:11:28;;;;;;;;;;;4.20;91.40;;;;;;5029537;28;20427;-42
2021/04/13 06:14:01;;;;;;;;;;;4.40;91.40;;;;;;5024814;28;19944;-41
2021/04/13 06:16:32;;;;;;;;;;;4.50;91.20;;;;;;5032935;28;19921;-42
2021/04/13 06:18:58;;;;;;;;;;;4.60;90.60;;;;;;5033228;28;19935;-41
2021/04/13 06:21:27;;;;;;;;;;;4.80;90.50;;;;;;5031025;28;19929;-43
2021/04/13 06:23:53;;;;;;;;;;;5.00;90.50;;;;;;5026801;28;19931;-40
2021/04/13 06:26:21;;;;;;;;;;;5.00;89.40;;;;;;5028575;28;19924;-39
2021/04/13 06:28:49;;;;;;;;;;;5.00;89.20;;;;;;5026379;28;20385;-40
2021/04/13 06:31:15;;;;;;;;;;;5.20;89.50;;;;;;5027762;28;19936;-40
2021/04/13 06:33:44;;;;;;;;;;;5.20;87.20;;;;;;5026551;28;19921;-39
2021/04/13 06:36:16;;;;;;;;;;;5.40;87.60;;;;;;5028715;28;19929;-40
2021/04/13 06:38:42;;;;;;;;;;;5.60;86.30;;;;;;5033694;28;20274;-40
2021/04/13 06:41:18;;;;;;;;;;;5.70;86.40;;;;;;5034552;28;19925;-40
2021/04/13 06:43:59;;;;;;;;;;;5.80;86.00;;;;;;5029533;28;19955;-40
2021/04/13 06:46:30;;;;;;;;;;;6.10;84.90;;;;;;5030231;28;19929;-40
2021/04/13 06:49:17;;;;;;;;;;;6.40;83.40;;;;;;5029783;28;19936;-39
2021/04/13 06:51:42;;;;;;;;;;;6.60;82.10;;;;;;5032094;28;19995;-39
2021/04/13 06:54:18;;;;;;;;;;;6.80;81.30;;;;;;5030193;28;19944;-39
2021/04/13 06:56:46;;;;;;;;;;;6.90;80.50;;;;;;5028180;28;19943;-39
2021/04/13 06:59:11;;;;;;;;;;;7.10;79.10;;;;;;5036095;28;19936;-39
2021/04/13 07:01:56;;;;;;;;;;;7.50;78.70;;;;;;5029485;28;19925;-40
2021/04/13 07:04:33;;;;;;;;;;;7.70;76.60;;;;;;5029341;28;19925;-40
2021/04/13 07:07:01;;;;;;;;;;;8.20;77.40;;;;;;5029405;28;19925;-40
2021/04/13 07:09:33;;;;;;;;;;;8.30;74.40;;;;;;5029198;28;20019;-40
2021/04/13 07:12:20;;;;;;;;;;;8.40;73.30;;;;;;5022835;28;20039;-39
2021/04/13 07:14:56;;;;;;;;;;;8.60;72.50;;;;;;5026476;28;20065;-40
2021/04/13 07:17:24;;;;;;;;;;;8.60;71.50;;;;;;5029228;28;20016;-40
2021/04/13 07:20:10;;;;;;;;;;;9.00;71.30;;;;;;5028922;28;20430;-40
2021/04/13 07:22:42;;;;;;;;;;;9.30;69.00;;;;;;5026842;28;19944;-40
2021/04/13 07:25:08;;;;;;;;;;;9.20;68.90;;;;;;5031606;28;20297;-40
2021/04/13 07:27:42;;;;;;;;;;;9.10;68.30;;;;;;5029017;28;19928;-40
2021/04/13 07:30:13;;;;;;;;;;;8.90;68.10;;;;;;5029460;28;20058;-40
2021/04/13 07:32:42;;;;;;;;;;;9.60;69.00;;;;;;5033665;28;19924;-38
2021/04/13 07:35:16;;;;;;;;;;;9.70;67.00;;;;;;5028265;28;19954;-38
2021/04/13 07:37:49;;;;;;;;;;;9.70;67.30;;;;;;5028190;28;19928;-40
2021/04/13 07:40:35;;;;;;;;;;;9.60;64.80;;;;;;5028840;28;19979;-40
2021/04/13 07:43:05;;;;;;;;;;;10.00;65.80;;;;;;5029170;28;19925;-39
2021/04/13 07:45:49;;;;;;;;;;;10.30;64.40;;;;;;5029513;28;19925;-39
2021/04/13 07:48:25;;;;;;;;;;;10.40;61.90;;;;;;5028145;28;19986;-40
2021/04/13 07:50:53;;;;;;;;;;;10.30;60.90;;;;;;5028803;28;19925;-37
2021/04/13 07:53:25;;;;;;;;;;;10.50;62.40;;;;;;5029135;28;19925;-40
2021/04/13 07:56:09;;;;;;;;;;;9.80;60.50;;;;;;5028283;28;19933;-38
2021/04/13 07:58:44;;;;;;;;;;;9.90;64.00;;;;;;5019972;28;19931;-38
2021/04/13 08:01:10;;;;;;;;;;;9.40;62.90;;;;;;5025704;28;20007;-39
2021/04/13 08:03:41;;;;;;;;;;;9.60;63.10;;;;;;5027460;28;20023;-38
2021/04/13 08:06:25;;;;;;;;;;;9.90;63.00;;;;;;5028929;28;19928;-38
2021/04/13 08:09:04;;;;;;;;;;;10.30;61.60;;;;;;5027570;28;19947;-38
2021/04/13 08:11:30;;;;;;;;;;;10.60;62.20;;;;;;5028352;28;19940;-38
2021/04/13 08:13:56;;;;;;;;;;;10.00;60.90;;;;;;5029188;28;20392;-39
2021/04/13 08:16:48;;;;;;;;;;;10.00;61.70;;;;;;5027483;28;19925;-38
2021/04/13 08:19:38;;;;;;;;;;;10.40;58.70;;;;;;5028664;28;19931;-39
2021/04/13 08:22:08;;;;;;;;;;;10.60;60.30;;;;;;5027007;28;19925;-39
2021/04/13 08:24:34;;;;;;;;;;;10.60;60.00;;;;;;5028468;28;20032;-39
2021/04/13 08:27:12;;;;;;;;;;;10.30;58.30;;;;;;5027121;28;20067;-39
2021/04/13 08:29:45;;;;;;;;;;;10.40;58.50;;;;;;5024516;28;19932;-39
2021/04/13 08:35:03;;;;;;;;;;;11.10;55.70;;;;;;5027827;28;20039;-39
2021/04/13 08:37:47;;;;;;;;;;;11.50;54.80;;;;;;5034999;28;19925;-39
2021/04/13 08:40:32;;;;;;;;;;;11.30;53.30;;;;;;5034387;28;19931;-39
2021/04/13 08:43:14;;;;;;;;;;;11.60;54.20;;;;;;5030745;28;19928;-39
2021/04/13 08:45:46;;;;;;;;;;;12.30;56.20;;;;;;5018038;28;20447;-39
2021/04/13 08:48:18;;;;;;;;;;;12.00;49.50;;;;;;5026205;28;20723;-39
2021/04/13 08:50:49;;;;;;;;;;;12.40;47.40;;;;;;5025918;28;19924;-38
2021/04/13 08:53:55;;;;;;;;;;;12.20;49.00;;;;;;5033608;28;19968;-39
2021/04/13 08:56:25;;;;;;;;;;;12.20;47.70;;;;;;5043668;28;20391;-39
2021/04/13 08:58:52;;;;;;;;;;;12.20;47.70;;;;;;5043283;28;20399;-39
2021/04/13 09:01:31;;;;;;;;;;;12.40;47.60;;;;;;5042878;28;19992;-39
2021/04/13 09:03:59;;;;;;;;;;;12.90;45.90;;;;;;5038246;28;19921;-39
2021/04/13 09:06:44;;;;;;;;;;;13.30;46.20;;;;;;5047648;28;19924;-39
2021/04/13 09:09:26;;;;;;;;;;;12.90;46.30;;;;;;5042975;28;20158;-39
2021/04/13 09:11:56;;;;;;;;;;;13.10;47.40;;;;;;5040519;28;20446;-39
2021/04/13 09:14:25;;;;;;;;;;;12.50;47.90;;;;;;5043433;28;19979;-39
2021/04/13 09:17:03;;;;;;;;;;;12.20;50.20;;;;;;5045333;28;19928;-39
2021/04/13 09:19:31;;;;;;;;;;;11.50;50.60;;;;;;5043489;28;19924;-39
2021/04/13 09:22:01;;;;;;;;;;;10.90;51.60;;;;;;5043080;28;19927;-39
2021/04/13 09:24:43;;;;;;;;;;;10.30;54.70;;;;;;5043723;28;19921;-39
2021/04/13 09:27:16;;;;;;;;;;;9.70;59.90;;;;;;5034461;28;20286;-39
2021/04/13 09:29:46;;;;;;;;;;;9.30;62.70;;;;;;5026471;28;20669;-39
2021/04/13 09:32:30;;;;;;;;;;;9.10;63.10;;;;;;5021297;28;20203;-39
2021/04/13 09:35:17;;;;;;;;;;;9.10;63.80;;;;;;5013529;28;19929;-38
2021/04/13 09:38:04;;;;;;;;;;;9.60;63.70;;;;;;5028303;28;19924;-39
2021/04/13 09:40:39;;;;;;;;;;;10.10;59.90;;;;;;5025560;28;20690;-37
2021/04/13 09:43:29;;;;;;;;;;;11.10;60.40;;;;;;5018993;28;19939;-37
2021/04/13 09:46:00;;;;;;;;;;;11.70;57.80;;;;;;5025240;28;19925;-39
2021/04/13 09:48:26;;;;;;;;;;;12.90;55.20;;;;;;5029782;28;19956;-38
2021/04/13 09:51:12;;;;;;;;;;;13.10;52.80;;;;;;5024948;28;19972;-37
2021/04/13 09:53:44;;;;;;;;;;;13.10;49.50;;;;;;5024921;28;19929;-37
2021/04/13 09:56:09;;;;;;;;;;;13.10;49.60;;;;;;5027616;28;19960;-37
2021/04/13 09:58:41;;;;;;;;;;;13.50;47.40;;;;;;5024148;28;19964;-37
2021/04/13 10:01:14;;;;;;;;;;;14.30;47.10;;;;;;5022467;28;19932;-37
2021/04/13 10:04:01;;;;;;;;;;;14.40;45.80;;;;;;5022407;28;19925;-37
2021/04/13 10:06:34;;;;;;;;;;;14.30;46.60;;;;;;5019579;28;19925;-38
2021/04/13 10:09:05;;;;;;;;;;;14.00;46.40;;;;;;5024245;28;19925;-38
2021/04/13 10:11:55;;;;;;;;;;;13.20;46.20;;;;;;5028673;28;20423;-37
2021/04/13 10:14:28;;;;;;;;;;;12.00;46.20;;;;;;5024912;28;19925;-37
2021/04/13 10:17:13;;;;;;;;;;;11.60;49.90;;;;;;5026375;28;19963;-37
2021/04/13 10:19:47;;;;;;;;;;;12.30;48.80;;;;;;5022703;28;19925;-38
2021/04/13 10:22:41;;;;;;;;;;;13.00;46.30;;;;;;5025339;28;19929;-36
2021/04/13 10:25:25;;;;;;;;;;;13.50;44.70;;;;;;4968675;28;20359;-37
2021/04/13 10:28:11;;;;;;;;;;;14.50;45.10;;;;;;4967411;28;19926;-37
2021/04/13 10:30:43;;;;;;;;;;;14.50;43.90;;;;;;5001874;28;20377;-38
2021/04/13 10:33:31;;;;;;;;;;;13.50;44.70;;;;;;5001174;28;20016;-38
2021/04/13 10:36:01;;;;;;;;;;;12.60;47.40;;;;;;4976923;28;19922;-37
2021/04/13 10:38:36;;;;;;;;;;;12.00;49.10;;;;;;4979525;28;20382;-36
2021/04/13 10:41:34;;;;;;;;;;;11.30;49.20;;;;;;4981119;28;19922;-37
2021/04/13 10:44:18;;;;;;;;;;;10.90;52.50;;;;;;4977466;28;19929;-37
2021/04/13 10:46:49;;;;;;;;;;;11.30;53.20;;;;;;4990602;28;20294;-39
2021/04/13 10:49:31;;;;;;;;;;;10.60;55.20;;;;;;4982280;28;19930;-39
2021/04/13 10:52:09;;;;;;;;;;;10.40;58.40;;;;;;4980993;28;19922;-38
2021/04/13 10:54:35;;;;;;;;;;;10.00;57.70;;;;;;4977633;28;20369;-39
2021/04/13 10:57:06;;;;;;;;;;;9.90;57.20;;;;;;4978532;28;20021;-38
2021/04/13 10:59:31;;;;;;;;;;;9.90;56.30;;;;;;4989424;28;19929;-38
2021/04/13 11:02:21;;;;;;;;;;;10.70;56.10;;;;;;4998445;28;19929;-40
2021/04/13 11:05:07;;;;;;;;;;;11.20;55.00;;;;;;5027082;28;19948;-40
2021/04/13 11:08:09;;;;;;;;;;;12.10;49.00;;;;;;5027129;28;19932;-39
2021/04/13 11:10:45;;;;;;;;;;;12.90;47.40;;;;;;5023435;28;19937;-41
2021/04/13 11:13:29;;;;;;;;;;;13.50;43.70;;;;;;5021233;28;19925;-41
2021/04/13 11:16:00;;;;;;;;;;;14.20;47.80;;;;;;5021502;28;19931;-40
2021/04/13 11:18:35;;;;;;;;;;;14.70;45.10;;;;;;5021543;28;19921;-41
2021/04/13 11:21:07;;;;;;;;;;;14.30;42.70;;;;;;5022653;28;20111;-40
2021/04/13 11:23:53;;;;;;;;;;;15.50;42.20;;;;;;5024564;28;19925;-41
2021/04/13 11:26:26;;;;;;;;;;;14.90;40.80;;;;;;5024624;28;19934;-41
2021/04/13 11:29:10;;;;;;;;;;;13.00;39.70;;;;;;5022113;28;19921;-40
2021/04/13 11:31:52;;;;;;;;;;;12.40;41.40;;;;;;5023878;28;19921;-39
2021/04/13 11:34:27;;;;;;;;;;;11.90;44.10;;;;;;5023578;28;19935;-40
2021/04/13 11:36:53;;;;;;;;;;;11.60;45.20;;;;;;5023801;28;20019;-42
2021/04/13 11:39:23;;;;;;;;;;;11.20;46.90;;;;;;5027717;28;20338;-40
2021/04/13 11:42:11;;;;;;;;;;;11.90;48.90;;;;;;5025382;28;20609;-37
2021/04/13 11:44:51;;;;;;;;;;;12.90;45.40;;;;;;5024364;28;19968;-37
2021/04/13 11:47:25;;;;;;;;;;;13.70;46.70;;;;;;5032268;28;19921;-37
2021/04/13 11:50:06;;;;;;;;;;;14.80;44.10;;;;;;5025696;28;19925;-36
2021/04/13 11:52:46;;;;;;;;;;;15.00;39.60;;;;;;5024479;28;19925;-37
2021/04/13 11:55:24;;;;;;;;;;;14.20;42.10;;;;;;5030624;28;19921;-37
2021/04/13 11:58:30;;;;;;;;;;;13.20;43.40;;;;;;5029560;28;19936;-37
2021/04/13 12:01:14;;;;;;;;;;;12.60;46.70;;;;;;4983907;28;20028;-36
2021/04/13 12:04:00;;;;;;;;;;;12.10;47.50;;;;;;4982640;28;19925;-36
2021/04/13 12:06:44;;;;;;;;;;;12.20;47.30;;;;;;4984449;28;19937;-36
2021/04/13 12:09:13;;;;;;;;;;;13.10;46.60;;;;;;4984512;28;19930;-37
2021/04/13 12:11:54;;;;;;;;;;;14.00;46.50;;;;;;4980956;28;19961;-37
2021/04/13 12:14:35;;;;;;;;;;;15.00;42.40;;;;;;4979022;28;19925;-37
2021/04/13 12:17:10;;;;;;;;;;;14.90;43.00;;;;;;4988217;28;19943;-38
2021/04/13 12:19:56;;;;;;;;;;;14.50;44.40;;;;;;5003801;28;20385;-37
2021/04/13 12:22:57;;;;;;;;;;;13.80;44.90;;;;;;5003326;28;20467;-39
2021/04/13 12:25:33;;;;;;;;;;;13.20;46.50;;;;;;4909753;29;19928;-38
2021/04/13 12:28:02;;;;;;;;;;;14.10;44.80;;;;;;4893721;29;19935;-38
2021/04/13 12:30:32;;;;;;;;;;;14.40;43.60;;;;;;4887828;29;19927;-37
2021/04/13 12:33:02;;;;;;;;;;;14.50;41.00;;;;;;4920525;28;19985;-36
2021/04/13 12:35:46;;;;;;;;;;;15.60;41.40;;;;;;4925329;29;19935;-37
2021/04/13 12:38:31;;;;;;;;;;;15.90;39.80;;;;;;4926237;29;19933;-39
2021/04/13 12:41:11;;;;;;;;;;;15.20;40.80;;;;;;4933741;29;19937;-39
2021/04/13 12:43:42;;;;;;;;;;;13.00;41.50;;;;;;4926841;28;20150;-37
2021/04/13 12:46:18;;;;;;;;;;;13.40;43.20;;;;;;4925932;29;19927;-40
2021/04/13 12:48:50;;;;;;;;;;;13.70;41.20;;;;;;4925992;29;20021;-37
2021/04/13 12:51:24;;;;;;;;;;;14.40;39.30;;;;;;4924393;29;20398;-37
2021/04/13 12:54:09;;;;;;;;;;;13.80;38.40;;;;;;4930246;28;19973;-38
2021/04/13 12:56:38;;;;;;;;;;;14.00;43.20;;;;;;5025874;28;19940;-39
2021/04/13 12:59:10;;;;;;;;;;;13.60;43.10;;;;;;5025064;28;19932;-38
2021/04/13 13:01:42;;;;;;;;;;;13.20;43.70;;;;;;5024440;28;19935;-39
2021/04/13 13:04:11;;;;;;;;;;;12.70;45.30;;;;;;5024982;28;19951;-40
2021/04/13 13:06:41;;;;;;;;;;;13.30;45.60;;;;;;5024256;28;19921;-39
2021/04/13 13:09:09;;;;;;;;;;;13.80;42.00;;;;;;5023903;28;19928;-39
2021/04/13 13:11:40;;;;;;;;;;;14.20;38.50;;;;;;5025422;28;20015;-39
2021/04/13 13:14:15;;;;;;;;;;;15.40;39.60;;;;;;5024608;28;19925;-39
2021/04/13 13:16:44;;;;;;;;;;;15.90;35.80;;;;;;5020899;28;20041;-38
2021/04/13 13:19:26;;;;;;;;;;;15.90;35.60;;;;;;5025578;28;19925;-39
2021/04/13 13:21:54;;;;;;;;;;;16.30;36.70;;;;;;5022681;28;19925;-39
2021/04/13 13:24:31;;;;;;;;;;;15.80;34.30;;;;;;5023362;28;19924;-38
2021/04/13 13:27:20;;;;;;;;;;;16.30;36.70;;;;;;5022561;28;19920;-38
2021/04/13 13:29:50;;;;;;;;;;;16.90;36.00;;;;;;5022900;28;19925;-38
2021/04/13 13:32:17;;;;;;;;;;;16.30;35.00;;;;;;5023905;28;20008;-40
2021/04/13 13:34:48;;;;;;;;;;;15.20;36.10;;;;;;5027924;28;20011;-39
2021/04/13 13:37:25;;;;;;;;;;;14.60;39.10;;;;;;5023478;28;20008;-39
2021/04/13 13:39:51;;;;;;;;;;;14.60;39.00;;;;;;5030991;28;19944;-39
2021/04/13 13:42:20;;;;;;;;;;;13.90;39.00;;;;;;5024442;28;19982;-38
2021/04/13 13:44:53;;;;;;;;;;;14.00;36.70;;;;;;5028399;28;20019;-37
2021/04/13 13:47:28;;;;;;;;;;;13.30;35.60;;;;;;5014877;28;19925;-36
2021/04/13 13:49:59;;;;;;;;;;;12.80;38.30;;;;;;5025076;28;20441;-36
2021/04/13 13:52:43;;;;;;;;;;;12.00;40.70;;;;;;5033067;28;19975;-36
2021/04/13 13:55:21;;;;;;;;;;;11.80;45.30;;;;;;5032199;28;19932;-36
2021/04/13 13:58:00;;;;;;;;;;;11.60;45.30;;;;;;5023926;28;19961;-36
2021/04/13 14:00:41;;;;;;;;;;;10.90;45.90;;;;;;5029570;28;20297;-36
2021/04/13 14:03:14;;;;;;;;;;;10.90;48.20;;;;;;5021997;28;20044;-36
2021/04/13 14:05:44;;;;;;;;;;;10.60;49.20;;;;;;5024576;28;19924;-36
2021/04/13 14:08:31;;;;;;;;;;;10.80;50.50;;;;;;5024476;28;19948;-36
2021/04/13 14:11:34;;;;;;;;;;;12.10;47.90;;;;;;5021886;28;19928;-35
2021/04/13 14:14:05;;;;;;;;;;;13.30;39.40;;;;;;5026143;28;20040;-38
2021/04/13 14:16:45;;;;;;;;;;;13.00;35.30;;;;;;5032663;28;20867;-38
2021/04/13 14:19:29;;;;;;;;;;;12.90;37.00;;;;;;5033495;28;19925;-37
2021/04/13 14:22:01;;;;;;;;;;;13.40;37.60;;;;;;5035308;28;20476;-36
2021/04/13 14:24:53;;;;;;;;;;;14.10;37.30;;;;;;5053508;28;19932;-36
2021/04/13 14:27:24;;;;;;;;;;;14.10;38.90;;;;;;5006358;28;19996;-36
2021/04/13 14:30:00;;;;;;;;;;;15.00;38.80;;;;;;4992061;28;20013;-37
2021/04/13 14:32:34;;;;;;;;;;;14.60;36.90;;;;;;4992846;28;20028;-36
2021/04/13 14:35:03;;;;;;;;;;;15.10;36.90;;;;;;4998820;28;20404;-37
2021/04/13 14:37:35;;;;;;;;;;;15.80;37.10;;;;;;5002468;28;19925;-37
2021/04/13 14:40:13;;;;;;;;;;;15.30;35.30;;;;;;5005449;28;19925;-37
2021/04/13 14:42:43;;;;;;;;;;;14.60;34.10;;;;;;5001119;28;19925;-37
2021/04/13 14:45:10;;;;;;;;;;;13.80;34.80;;;;;;4991367;28;20101;-38
2021/04/13 14:47:37;;;;;;;;;;;14.00;37.40;;;;;;4995731;28;20048;-37
2021/04/13 14:50:27;;;;;;;;;;;12.90;36.50;;;;;;4988991;28;20016;-36
2021/04/13 14:52:53;;;;;;;;;;;13.00;39.50;;;;;;5005073;28;19925;-36
2021/04/13 14:55:24;;;;;;;;;;;13.80;39.40;;;;;;5005734;28;19933;-37
2021/04/13 14:57:53;;;;;;;;;;;14.30;41.10;;;;;;5004621;28;19929;-37
2021/04/13 15:00:22;;;;;;;;;;;14.40;39.40;;;;;;5004583;28;20020;-37
2021/04/13 15:02:54;;;;;;;;;;;13.50;40.70;;;;;;5004432;28;19968;-37
2021/04/13 15:05:20;;;;;;;;;;;12.80;43.60;;;;;;5032079;28;19932;-37
2021/04/13 15:07:51;;;;;;;;;;;12.40;44.90;;;;;;5032464;28;20296;-37